sensor_id;sensor_type;location;lat;lon;timestamp;pressure;altitude;pressure_sealevel;temperature;humidity
56330;BME280;42236;48.058;10.632;2023-05-01T00:00:38;94564.22;;;9.43;72.04
56330;BME280;42236;48.058;10.632;2023-05-01T00:03:23;94564.56;;;9.41;72.03
56330;BME280;42236;48.058;10.632;2023-05-01T00:06:09;94564.00;;;9.35;72.42
56330;BME280;42236;48.058;10.632;2023-05-01T00:08:55;94561.28;;;9.23;73.20
56330;BME280;42236;48.058;10.632;2023-05-01T00:11:41;94559.22;;;9.20;73.05
56330;BME280;42236;48.058;10.632;2023-05-01T00:14:27;94558.59;;;9.23;72.94
56330;BME280;42236;48.058;10.632;2023-05-01T00:17:12;94552.53;;;9.26;72.70
56330;BME280;42236;48.058;10.632;2023-05-01T00:19:58;94558.59;;;9.23;72.90
56330;BME280;42236;48.058;10.632;2023-05-01T00:22:45;94554.31;;;9.22;72.96
56330;BME280;42236;48.058;10.632;2023-05-01T00:25:30;94551.63;;;9.22;72.87
56330;BME280;42236;48.058;10.632;2023-05-01T00:28:19;94546.91;;;9.19;73.11
56330;BME280;42236;48.058;10.632;2023-05-01T00:31:05;94541.53;;;9.19;73.02
56330;BME280;42236;48.058;10.632;2023-05-01T00:33:50;94537.47;;;9.13;72.94
56330;BME280;42236;48.058;10.632;2023-05-01T00:36:36;94537.34;;;9.09;73.23
56330;BME280;42236;48.058;10.632;2023-05-01T00:39:22;94536.56;;;8.96;73.91
56330;BME280;42236;48.058;10.632;2023-05-01T00:42:07;94535.31;;;8.94;73.87
56330;BME280;42236;48.058;10.632;2023-05-01T00:44:53;94521.72;;;8.90;73.74
56330;BME280;42236;48.058;10.632;2023-05-01T00:47:39;94522.84;;;8.89;73.63
56330;BME280;42236;48.058;10.632;2023-05-01T00:50:25;94520.81;;;8.86;73.71
56330;BME280;42236;48.058;10.632;2023-05-01T00:53:11;94516.88;;;8.84;73.71
56330;BME280;42236;48.058;10.632;2023-05-01T00:55:57;94517.53;;;8.81;73.78
56330;BME280;42236;48.058;10.632;2023-05-01T00:58:49;94514.75;;;8.77;74.29
56330;BME280;42236;48.058;10.632;2023-05-01T01:01:40;94510.00;;;8.74;74.06
56330;BME280;42236;48.058;10.632;2023-05-01T01:04:26;94504.38;;;8.67;74.37
56330;BME280;42236;48.058;10.632;2023-05-01T01:10:30;94500.69;;;8.71;74.81
56330;BME280;42236;48.058;10.632;2023-05-01T01:13:29;94497.69;;;8.73;74.02
56330;BME280;42236;48.058;10.632;2023-05-01T01:16:38;94497.03;;;8.76;74.15
56330;BME280;42236;48.058;10.632;2023-05-01T01:22:50;94493.66;;;8.79;73.48
56330;BME280;42236;48.058;10.632;2023-05-01T01:29:38;94496.09;;;8.72;73.81
56330;BME280;42236;48.058;10.632;2023-05-01T01:35:25;94496.56;;;8.74;73.41
56330;BME280;42236;48.058;10.632;2023-05-01T01:38:25;94498.63;;;8.77;74.22
56330;BME280;42236;48.058;10.632;2023-05-01T01:41:19;94490.19;;;8.79;73.81
56330;BME280;42236;48.058;10.632;2023-05-01T01:44:13;94489.28;;;8.74;73.56
56330;BME280;42236;48.058;10.632;2023-05-01T01:47:05;94493.88;;;8.74;73.69
56330;BME280;42236;48.058;10.632;2023-05-01T01:49:53;94501.94;;;8.74;73.55
56330;BME280;42236;48.058;10.632;2023-05-01T01:52:41;94500.38;;;8.73;73.50
56330;BME280;42236;48.058;10.632;2023-05-01T01:55:30;94497.22;;;8.71;73.69
56330;BME280;42236;48.058;10.632;2023-05-01T01:58:20;94497.91;;;8.68;73.82
56330;BME280;42236;48.058;10.632;2023-05-01T02:01:12;94497.44;;;8.66;73.97
56330;BME280;42236;48.058;10.632;2023-05-01T02:03:59;94504.28;;;8.63;74.20
56330;BME280;42236;48.058;10.632;2023-05-01T02:06:46;94498.44;;;8.61;74.04
56330;BME280;42236;48.058;10.632;2023-05-01T02:09:34;94491.69;;;8.55;74.69
56330;BME280;42236;48.058;10.632;2023-05-01T02:12:20;94488.66;;;8.57;74.87
56330;BME280;42236;48.058;10.632;2023-05-01T02:15:09;94486.66;;;8.53;74.74
56330;BME280;42236;48.058;10.632;2023-05-01T02:17:55;94481.91;;;8.50;74.69
56330;BME280;42236;48.058;10.632;2023-05-01T02:20:41;94487.75;;;8.52;74.84
56330;BME280;42236;48.058;10.632;2023-05-01T02:23:29;94490.13;;;8.54;74.82
56330;BME280;42236;48.058;10.632;2023-05-01T02:26:17;94481.34;;;8.45;75.10
56330;BME280;42236;48.058;10.632;2023-05-01T02:29:04;94483.44;;;8.39;75.19
56330;BME280;42236;48.058;10.632;2023-05-01T02:31:51;94479.00;;;8.43;75.41
56330;BME280;42236;48.058;10.632;2023-05-01T02:34:37;94480.56;;;8.44;75.39
56330;BME280;42236;48.058;10.632;2023-05-01T02:37:23;94469.03;;;8.44;75.02
56330;BME280;42236;48.058;10.632;2023-05-01T02:40:10;94467.44;;;8.43;74.96
56330;BME280;42236;48.058;10.632;2023-05-01T02:42:57;94461.91;;;8.39;75.12
56330;BME280;42236;48.058;10.632;2023-05-01T02:45:46;94468.25;;;8.43;74.86
56330;BME280;42236;48.058;10.632;2023-05-01T02:48:32;94462.88;;;8.43;74.89
56330;BME280;42236;48.058;10.632;2023-05-01T02:51:19;94462.19;;;8.46;74.88
56330;BME280;42236;48.058;10.632;2023-05-01T02:54:06;94451.44;;;8.46;74.98
56330;BME280;42236;48.058;10.632;2023-05-01T02:56:52;94448.97;;;8.41;74.90
56330;BME280;42236;48.058;10.632;2023-05-01T02:59:38;94442.19;;;8.35;75.40
56330;BME280;42236;48.058;10.632;2023-05-01T03:02:25;94440.38;;;8.27;75.55
56330;BME280;42236;48.058;10.632;2023-05-01T03:05:11;94438.16;;;8.29;75.38
56330;BME280;42236;48.058;10.632;2023-05-01T03:07:56;94446.66;;;8.31;75.54
56330;BME280;42236;48.058;10.632;2023-05-01T03:10:42;94441.09;;;8.36;75.46
56330;BME280;42236;48.058;10.632;2023-05-01T03:13:28;94438.81;;;8.38;75.68
56330;BME280;42236;48.058;10.632;2023-05-01T03:16:14;94443.09;;;8.39;75.70
56330;BME280;42236;48.058;10.632;2023-05-01T03:19:00;94443.59;;;8.41;75.73
56330;BME280;42236;48.058;10.632;2023-05-01T03:21:45;94437.72;;;8.39;75.45
56330;BME280;42236;48.058;10.632;2023-05-01T03:24:31;94433.44;;;8.38;75.48
56330;BME280;42236;48.058;10.632;2023-05-01T03:27:16;94432.88;;;8.32;75.59
56330;BME280;42236;48.058;10.632;2023-05-01T03:30:02;94430.72;;;8.26;75.93
56330;BME280;42236;48.058;10.632;2023-05-01T03:32:49;94427.41;;;8.29;75.81
56330;BME280;42236;48.058;10.632;2023-05-01T03:35:36;94419.44;;;8.32;75.98
56330;BME280;42236;48.058;10.632;2023-05-01T03:38:22;94425.38;;;8.38;75.55
56330;BME280;42236;48.058;10.632;2023-05-01T03:41:08;94418.28;;;8.42;75.32
56330;BME280;42236;48.058;10.632;2023-05-01T03:43:54;94426.78;;;8.44;75.36
56330;BME280;42236;48.058;10.632;2023-05-01T03:46:39;94429.94;;;8.46;75.41
56330;BME280;42236;48.058;10.632;2023-05-01T03:49:25;94422.75;;;8.50;75.85
56330;BME280;42236;48.058;10.632;2023-05-01T03:52:11;94427.03;;;8.51;76.73
56330;BME280;42236;48.058;10.632;2023-05-01T03:54:57;94430.50;;;8.52;76.22
56330;BME280;42236;48.058;10.632;2023-05-01T03:57:43;94423.69;;;8.54;76.35
56330;BME280;42236;48.058;10.632;2023-05-01T04:00:31;94416.84;;;8.57;76.81
56330;BME280;42236;48.058;10.632;2023-05-01T04:03:17;94421.91;;;8.59;76.85
56330;BME280;42236;48.058;10.632;2023-05-01T04:06:03;94419.22;;;8.59;76.46
56330;BME280;42236;48.058;10.632;2023-05-01T04:08:49;94417.06;;;8.52;76.59
56330;BME280;42236;48.058;10.632;2023-05-01T04:11:34;94419.75;;;8.52;77.04
56330;BME280;42236;48.058;10.632;2023-05-01T04:14:20;94410.13;;;8.51;76.68
56330;BME280;42236;48.058;10.632;2023-05-01T04:17:05;94418.66;;;8.53;76.39
56330;BME280;42236;48.058;10.632;2023-05-01T04:19:51;94421.66;;;8.51;76.54
56330;BME280;42236;48.058;10.632;2023-05-01T04:22:37;94416.97;;;8.48;76.80
56330;BME280;42236;48.058;10.632;2023-05-01T04:25:23;94413.03;;;8.46;76.90
56330;BME280;42236;48.058;10.632;2023-05-01T04:28:12;94420.75;;;8.47;77.27
56330;BME280;42236;48.058;10.632;2023-05-01T04:30:57;94424.56;;;8.46;76.99
56330;BME280;42236;48.058;10.632;2023-05-01T04:33:43;94419.88;;;8.43;77.33
56330;BME280;42236;48.058;10.632;2023-05-01T04:36:29;94424.78;;;8.41;77.67
56330;BME280;42236;48.058;10.632;2023-05-01T04:39:17;94431.91;;;8.37;77.29
56330;BME280;42236;48.058;10.632;2023-05-01T04:42:03;94424.28;;;8.39;77.48
56330;BME280;42236;48.058;10.632;2023-05-01T04:44:49;94432.44;;;8.30;77.77
56330;BME280;42236;48.058;10.632;2023-05-01T04:47:35;94439.66;;;8.18;77.91
56330;BME280;42236;48.058;10.632;2023-05-01T04:50:20;94443.47;;;8.17;78.19
56330;BME280;42236;48.058;10.632;2023-05-01T04:53:06;94441.88;;;8.16;78.36
56330;BME280;42236;48.058;10.632;2023-05-01T04:55:51;94441.09;;;8.15;78.35
56330;BME280;42236;48.058;10.632;2023-05-01T04:58:37;94436.50;;;8.16;78.70
56330;BME280;42236;48.058;10.632;2023-05-01T05:01:23;94437.19;;;8.12;78.67
56330;BME280;42236;48.058;10.632;2023-05-01T05:04:08;94439.41;;;8.10;78.90
56330;BME280;42236;48.058;10.632;2023-05-01T05:06:54;94445.25;;;8.12;79.23
56330;BME280;42236;48.058;10.632;2023-05-01T05:09:40;94443.66;;;8.11;79.55
56330;BME280;42236;48.058;10.632;2023-05-01T05:12:26;94443.22;;;8.09;79.68
56330;BME280;42236;48.058;10.632;2023-05-01T05:15:11;94447.78;;;8.09;80.24
56330;BME280;42236;48.058;10.632;2023-05-01T05:17:57;94445.25;;;8.12;80.62
56330;BME280;42236;48.058;10.632;2023-05-01T05:20:43;94441.78;;;8.12;80.02
56330;BME280;42236;48.058;10.632;2023-05-01T05:23:28;94440.06;;;8.07;80.19
56330;BME280;42236;48.058;10.632;2023-05-01T05:26:15;94438.69;;;8.01;80.60
56330;BME280;42236;48.058;10.632;2023-05-01T05:29:00;94442.03;;;7.98;80.89
56330;BME280;42236;48.058;10.632;2023-05-01T05:31:46;94442.81;;;7.99;80.58
56330;BME280;42236;48.058;10.632;2023-05-01T05:34:32;94454.50;;;8.03;80.75
56330;BME280;42236;48.058;10.632;2023-05-01T05:37:17;94449.22;;;8.06;80.73
56330;BME280;42236;48.058;10.632;2023-05-01T05:40:03;94453.25;;;8.00;81.31
56330;BME280;42236;48.058;10.632;2023-05-01T05:42:50;94452.59;;;8.03;80.68
56330;BME280;42236;48.058;10.632;2023-05-01T05:45:36;94452.13;;;8.01;81.31
56330;BME280;42236;48.058;10.632;2023-05-01T05:48:21;94453.56;;;7.99;81.31
56330;BME280;42236;48.058;10.632;2023-05-01T05:51:07;94457.38;;;7.98;82.10
56330;BME280;42236;48.058;10.632;2023-05-01T05:53:53;94453.44;;;7.95;82.45
56330;BME280;42236;48.058;10.632;2023-05-01T05:56:38;94457.94;;;8.03;82.56
56330;BME280;42236;48.058;10.632;2023-05-01T05:59:24;94455.38;;;8.07;82.68
56330;BME280;42236;48.058;10.632;2023-05-01T06:02:10;94450.94;;;8.11;81.77
56330;BME280;42236;48.058;10.632;2023-05-01T06:04:55;94451.72;;;8.11;82.22
56330;BME280;42236;48.058;10.632;2023-05-01T06:07:41;94446.34;;;8.11;82.49
56330;BME280;42236;48.058;10.632;2023-05-01T06:10:27;94447.47;;;8.10;82.33
56330;BME280;42236;48.058;10.632;2023-05-01T06:13:13;94445.81;;;8.18;82.83
56330;BME280;42236;48.058;10.632;2023-05-01T06:15:59;94453.09;;;8.18;82.70
56330;BME280;42236;48.058;10.632;2023-05-01T06:18:45;94449.50;;;8.13;83.13
56330;BME280;42236;48.058;10.632;2023-05-01T06:21:31;94447.59;;;8.14;83.12
56330;BME280;42236;48.058;10.632;2023-05-01T06:24:18;94450.66;;;8.25;82.90
56330;BME280;42236;48.058;10.632;2023-05-01T06:27:04;94448.34;;;8.36;82.16
56330;BME280;42236;48.058;10.632;2023-05-01T06:29:49;94447.38;;;8.40;81.95
56330;BME280;42236;48.058;10.632;2023-05-01T06:32:35;94452.75;;;8.40;81.98
56330;BME280;42236;48.058;10.632;2023-05-01T06:35:21;94453.69;;;8.44;82.07
56330;BME280;42236;48.058;10.632;2023-05-01T06:38:06;94454.81;;;8.43;83.22
56330;BME280;42236;48.058;10.632;2023-05-01T06:40:52;94456.81;;;8.46;83.25
56330;BME280;42236;48.058;10.632;2023-05-01T06:43:38;94452.91;;;8.44;82.88
56330;BME280;42236;48.058;10.632;2023-05-01T06:46:24;94455.44;;;8.40;83.10
56330;BME280;42236;48.058;10.632;2023-05-01T06:49:09;94457.81;;;8.42;83.77
56330;BME280;42236;48.058;10.632;2023-05-01T06:51:55;94458.28;;;8.44;83.26
56330;BME280;42236;48.058;10.632;2023-05-01T06:54:41;94464.88;;;8.46;84.25
56330;BME280;42236;48.058;10.632;2023-05-01T06:57:26;94463.09;;;8.50;84.31
56330;BME280;42236;48.058;10.632;2023-05-01T07:00:12;94464.00;;;8.54;83.90
56330;BME280;42236;48.058;10.632;2023-05-01T07:02:58;94462.69;;;8.61;84.16
56330;BME280;42236;48.058;10.632;2023-05-01T07:05:44;94464.03;;;8.67;83.93
56330;BME280;42236;48.058;10.632;2023-05-01T07:08:30;94470.13;;;8.76;83.36
56330;BME280;42236;48.058;10.632;2023-05-01T07:11:16;94464.22;;;8.83;82.73
56330;BME280;42236;48.058;10.632;2023-05-01T07:14:02;94468.13;;;8.85;83.50
56330;BME280;42236;48.058;10.632;2023-05-01T07:16:48;94474.44;;;8.89;83.27
56330;BME280;42236;48.058;10.632;2023-05-01T07:19:33;94466.59;;;8.96;83.06
56330;BME280;42236;48.058;10.632;2023-05-01T07:22:19;94475.44;;;8.97;84.10
56330;BME280;42236;48.058;10.632;2023-05-01T07:25:05;94466.94;;;9.07;83.55
56330;BME280;42236;48.058;10.632;2023-05-01T07:27:51;94469.31;;;9.09;84.63
56330;BME280;42236;48.058;10.632;2023-05-01T07:30:38;94462.56;;;9.03;84.89
56330;BME280;42236;48.058;10.632;2023-05-01T07:33:24;94475.91;;;8.99;85.32
56330;BME280;42236;48.058;10.632;2023-05-01T07:36:10;94475.78;;;8.95;85.95
56330;BME280;42236;48.058;10.632;2023-05-01T07:38:56;94472.22;;;9.04;87.04
56330;BME280;42236;48.058;10.632;2023-05-01T07:41:42;94475.09;;;9.11;86.42
56330;BME280;42236;48.058;10.632;2023-05-01T07:44:28;94475.78;;;9.08;85.84
56330;BME280;42236;48.058;10.632;2023-05-01T07:47:13;94478.16;;;9.09;87.32
56330;BME280;42236;48.058;10.632;2023-05-01T07:49:59;94477.59;;;9.16;86.78
56330;BME280;42236;48.058;10.632;2023-05-01T07:52:45;94477.84;;;9.23;86.36
56330;BME280;42236;48.058;10.632;2023-05-01T07:55:31;94477.03;;;9.23;87.20
56330;BME280;42236;48.058;10.632;2023-05-01T07:58:16;94481.88;;;9.29;87.74
56330;BME280;42236;48.058;10.632;2023-05-01T08:01:02;94480.31;;;9.28;88.87
56330;BME280;42236;48.058;10.632;2023-05-01T08:03:48;94478.50;;;9.32;89.62
56330;BME280;42236;48.058;10.632;2023-05-01T08:06:34;94478.72;;;9.39;88.33
56330;BME280;42236;48.058;10.632;2023-05-01T08:09:19;94486.25;;;9.46;88.50
56330;BME280;42236;48.058;10.632;2023-05-01T08:12:05;94479.41;;;9.49;89.04
56330;BME280;42236;48.058;10.632;2023-05-01T08:14:51;94484.34;;;9.59;89.03
56330;BME280;42236;48.058;10.632;2023-05-01T08:17:37;94487.38;;;9.57;90.22
56330;BME280;42236;48.058;10.632;2023-05-01T08:20:23;94490.06;;;9.70;88.84
56330;BME280;42236;48.058;10.632;2023-05-01T08:23:09;94497.38;;;9.69;88.69
56330;BME280;42236;48.058;10.632;2023-05-01T08:25:55;94497.13;;;9.74;88.98
56330;BME280;42236;48.058;10.632;2023-05-01T08:28:41;94500.28;;;9.76;88.73
56330;BME280;42236;48.058;10.632;2023-05-01T08:31:26;94492.19;;;9.76;89.19
56330;BME280;42236;48.058;10.632;2023-05-01T08:34:12;94495.09;;;9.83;89.24
56330;BME280;42236;48.058;10.632;2023-05-01T08:36:58;94493.75;;;9.90;89.71
56330;BME280;42236;48.058;10.632;2023-05-01T08:39:44;94497.63;;;10.04;89.67
56330;BME280;42236;48.058;10.632;2023-05-01T08:42:30;94495.06;;;10.08;90.33
56330;BME280;42236;48.058;10.632;2023-05-01T08:45:17;94502.91;;;10.13;90.25
56330;BME280;42236;48.058;10.632;2023-05-01T08:48:06;94499.72;;;10.23;90.16
56330;BME280;42236;48.058;10.632;2023-05-01T08:50:56;94504.66;;;10.34;89.80
56330;BME280;42236;48.058;10.632;2023-05-01T08:53:47;94508.38;;;10.41;90.29
56330;BME280;42236;48.058;10.632;2023-05-01T08:56:35;94503.97;;;10.49;89.91
56330;BME280;42236;48.058;10.632;2023-05-01T08:59:22;94506.41;;;10.54;89.78
56330;BME280;42236;48.058;10.632;2023-05-01T09:02:09;94505.91;;;10.64;90.32
56330;BME280;42236;48.058;10.632;2023-05-01T09:04:55;94512.09;;;10.65;89.27
56330;BME280;42236;48.058;10.632;2023-05-01T09:07:43;94506.81;;;10.68;89.22
56330;BME280;42236;48.058;10.632;2023-05-01T09:10:31;94511.44;;;10.84;89.38
56330;BME280;42236;48.058;10.632;2023-05-01T09:13:18;94509.84;;;10.95;89.15
56330;BME280;42236;48.058;10.632;2023-05-01T09:16:04;94511.75;;;11.10;88.64
56330;BME280;42236;48.058;10.632;2023-05-01T09:18:51;94512.84;;;11.22;88.29
56330;BME280;42236;48.058;10.632;2023-05-01T09:21:39;94504.66;;;11.34;88.38
56330;BME280;42236;48.058;10.632;2023-05-01T09:24:24;94506.38;;;11.42;87.66
56330;BME280;42236;48.058;10.632;2023-05-01T09:27:11;94508.91;;;11.51;87.74
56330;BME280;42236;48.058;10.632;2023-05-01T09:29:57;94511.44;;;11.60;87.29
56330;BME280;42236;48.058;10.632;2023-05-01T09:32:43;94513.72;;;11.58;86.75
56330;BME280;42236;48.058;10.632;2023-05-01T09:35:29;94513.53;;;11.66;86.53
56330;BME280;42236;48.058;10.632;2023-05-01T09:38:25;94515.63;;;11.73;86.92
56330;BME280;42236;48.058;10.632;2023-05-01T09:41:11;94519.78;;;11.86;86.19
56330;BME280;42236;48.058;10.632;2023-05-01T09:43:58;94520.84;;;11.98;85.85
56330;BME280;42236;48.058;10.632;2023-05-01T09:46:43;94524.72;;;12.16;85.83
56330;BME280;42236;48.058;10.632;2023-05-01T09:49:43;94516.72;;;12.39;85.12
56330;BME280;42236;48.058;10.632;2023-05-01T09:52:33;94516.44;;;12.44;84.83
56330;BME280;42236;48.058;10.632;2023-05-01T09:55:19;94515.16;;;12.57;84.51
56330;BME280;42236;48.058;10.632;2023-05-01T09:58:25;94521.34;;;12.58;83.09
56330;BME280;42236;48.058;10.632;2023-05-01T10:01:11;94521.88;;;12.64;83.85
56330;BME280;42236;48.058;10.632;2023-05-01T10:03:57;94525.50;;;12.71;83.39
56330;BME280;42236;48.058;10.632;2023-05-01T10:07:32;94521.00;;;12.79;82.14
56330;BME280;42236;48.058;10.632;2023-05-01T10:10:18;94516.94;;;12.69;80.46
56330;BME280;42236;48.058;10.632;2023-05-01T10:13:13;94518.22;;;12.75;81.57
56330;BME280;42236;48.058;10.632;2023-05-01T10:15:59;94510.09;;;12.75;81.37
56330;BME280;42236;48.058;10.632;2023-05-01T10:18:48;94518.34;;;12.82;81.02
56330;BME280;42236;48.058;10.632;2023-05-01T10:21:33;94516.84;;;12.85;80.53
56330;BME280;42236;48.058;10.632;2023-05-01T10:24:19;94523.47;;;12.88;79.92
56330;BME280;42236;48.058;10.632;2023-05-01T10:27:06;94519.31;;;13.13;79.67
56330;BME280;42236;48.058;10.632;2023-05-01T10:29:52;94526.78;;;13.39;79.73
56330;BME280;42236;48.058;10.632;2023-05-01T10:32:40;94520.47;;;13.32;78.73
56330;BME280;42236;48.058;10.632;2023-05-01T10:35:38;94524.00;;;13.16;76.88
56330;BME280;42236;48.058;10.632;2023-05-01T10:38:29;94534.59;;;13.02;76.67
56330;BME280;42236;48.058;10.632;2023-05-01T10:44:42;94514.13;;;13.05;77.53
56330;BME280;42236;48.058;10.632;2023-05-01T10:50:15;94516.59;;;12.90;77.01
56330;BME280;42236;48.058;10.632;2023-05-01T10:55:56;94511.66;;;12.96;76.22
56330;BME280;42236;48.058;10.632;2023-05-01T11:01:38;94512.47;;;13.19;76.76
56330;BME280;42236;48.058;10.632;2023-05-01T11:07:15;94508.03;;;13.31;75.79
56330;BME280;42236;48.058;10.632;2023-05-01T11:10:02;94508.59;;;13.40;76.53
56330;BME280;42236;48.058;10.632;2023-05-01T11:13:54;94499.63;;;13.36;75.13
56330;BME280;42236;48.058;10.632;2023-05-01T11:16:40;94500.16;;;13.45;75.92
56330;BME280;42236;48.058;10.632;2023-05-01T11:22:12;94494.75;;;13.45;75.09
56330;BME280;42236;48.058;10.632;2023-05-01T11:25:03;94493.66;;;13.50;75.54
56330;BME280;42236;48.058;10.632;2023-05-01T11:27:50;94496.69;;;13.44;74.10
56330;BME280;42236;48.058;10.632;2023-05-01T11:30:44;94486.19;;;13.43;74.99
56330;BME280;42236;48.058;10.632;2023-05-01T11:33:32;94492.34;;;13.40;74.70
56330;BME280;42236;48.058;10.632;2023-05-01T11:36:18;94488.72;;;13.32;75.15
56330;BME280;42236;48.058;10.632;2023-05-01T11:39:04;94483.75;;;13.34;75.00
56330;BME280;42236;48.058;10.632;2023-05-01T11:41:49;94486.50;;;13.38;75.00
56330;BME280;42236;48.058;10.632;2023-05-01T11:44:35;94482.78;;;13.46;75.22
56330;BME280;42236;48.058;10.632;2023-05-01T11:47:21;94480.38;;;13.41;74.87
56330;BME280;42236;48.058;10.632;2023-05-01T11:50:08;94479.34;;;13.49;74.59
56330;BME280;42236;48.058;10.632;2023-05-01T11:52:55;94491.41;;;13.55;74.64
56330;BME280;42236;48.058;10.632;2023-05-01T11:55:41;94483.91;;;13.68;75.39
56330;BME280;42236;48.058;10.632;2023-05-01T11:58:33;94486.34;;;13.77;74.89
56330;BME280;42236;48.058;10.632;2023-05-01T12:01:19;94491.06;;;13.80;75.77
56330;BME280;42236;48.058;10.632;2023-05-01T12:04:06;94488.03;;;13.85;75.62
56330;BME280;42236;48.058;10.632;2023-05-01T12:06:53;94488.81;;;13.85;75.02
56330;BME280;42236;48.058;10.632;2023-05-01T12:09:39;94490.75;;;13.62;74.30
56330;BME280;42236;48.058;10.632;2023-05-01T12:12:27;94490.63;;;13.55;75.23
56330;BME280;42236;48.058;10.632;2023-05-01T12:15:12;94488.19;;;13.46;75.43
56330;BME280;42236;48.058;10.632;2023-05-01T12:17:58;94489.75;;;13.47;75.52
56330;BME280;42236;48.058;10.632;2023-05-01T12:20:46;94485.22;;;13.55;76.24
56330;BME280;42236;48.058;10.632;2023-05-01T12:23:34;94489.88;;;13.81;75.64
56330;BME280;42236;48.058;10.632;2023-05-01T12:26:23;94484.94;;;13.86;75.09
56330;BME280;42236;48.058;10.632;2023-05-01T12:29:12;94488.84;;;13.89;75.34
56330;BME280;42236;48.058;10.632;2023-05-01T12:31:57;94490.34;;;13.86;75.43
56330;BME280;42236;48.058;10.632;2023-05-01T12:34:43;94486.00;;;14.08;76.01
56330;BME280;42236;48.058;10.632;2023-05-01T12:37:30;94488.63;;;14.28;75.75
56330;BME280;42236;48.058;10.632;2023-05-01T12:40:17;94478.78;;;14.46;75.25
56330;BME280;42236;48.058;10.632;2023-05-01T12:43:03;94479.97;;;14.49;75.08
56330;BME280;42236;48.058;10.632;2023-05-01T12:45:51;94483.06;;;14.47;75.08
56330;BME280;42236;48.058;10.632;2023-05-01T12:48:38;94484.41;;;14.61;75.58
56330;BME280;42236;48.058;10.632;2023-05-01T12:51:24;94480.41;;;14.81;75.04
56330;BME280;42236;48.058;10.632;2023-05-01T12:54:17;94472.53;;;15.10;74.85
56330;BME280;42236;48.058;10.632;2023-05-01T12:57:14;94477.44;;;15.34;73.61
56330;BME280;42236;48.058;10.632;2023-05-01T13:00:03;94478.75;;;15.55;72.42
56330;BME280;42236;48.058;10.632;2023-05-01T13:02:49;94473.31;;;15.55;72.35
56330;BME280;42236;48.058;10.632;2023-05-01T13:05:49;94466.63;;;15.42;70.80
56330;BME280;42236;48.058;10.632;2023-05-01T13:08:37;94468.13;;;15.35;71.52
56330;BME280;42236;48.058;10.632;2023-05-01T13:11:24;94468.19;;;15.43;71.67
56330;BME280;42236;48.058;10.632;2023-05-01T13:14:10;94463.38;;;15.70;71.86
56330;BME280;42236;48.058;10.632;2023-05-01T13:16:56;94472.09;;;15.93;70.81
56330;BME280;42236;48.058;10.632;2023-05-01T13:19:42;94471.72;;;15.98;70.80
56330;BME280;42236;48.058;10.632;2023-05-01T13:22:35;94468.84;;;15.73;67.45
56330;BME280;42236;48.058;10.632;2023-05-01T13:25:21;94463.41;;;15.73;70.20
56330;BME280;42236;48.058;10.632;2023-05-01T13:28:07;94465.44;;;15.87;69.47
56330;BME280;42236;48.058;10.632;2023-05-01T13:30:53;94460.50;;;16.04;68.49
56330;BME280;42236;48.058;10.632;2023-05-01T13:33:40;94466.81;;;16.22;68.12
56330;BME280;42236;48.058;10.632;2023-05-01T13:36:30;94468.06;;;16.35;66.95
56330;BME280;42236;48.058;10.632;2023-05-01T13:39:18;94465.00;;;16.48;67.60
56330;BME280;42236;48.058;10.632;2023-05-01T13:42:05;94464.25;;;16.51;67.41
56330;BME280;42236;48.058;10.632;2023-05-01T13:44:54;94466.09;;;16.29;67.60
56330;BME280;42236;48.058;10.632;2023-05-01T13:47:40;94464.44;;;16.10;67.48
56330;BME280;42236;48.058;10.632;2023-05-01T13:50:29;94462.47;;;16.10;67.29
56330;BME280;42236;48.058;10.632;2023-05-01T13:53:15;94466.41;;;16.16;67.34
56330;BME280;42236;48.058;10.632;2023-05-01T13:56:05;94464.91;;;16.30;67.42
56330;BME280;42236;48.058;10.632;2023-05-01T13:58:51;94465.31;;;16.32;67.13
56330;BME280;42236;48.058;10.632;2023-05-01T14:01:40;94462.66;;;16.46;66.69
56330;BME280;42236;48.058;10.632;2023-05-01T14:04:42;94460.56;;;16.14;66.92
56330;BME280;42236;48.058;10.632;2023-05-01T14:07:31;94456.84;;;15.82;68.16
56330;BME280;42236;48.058;10.632;2023-05-01T14:10:17;94461.97;;;15.42;68.80
56330;BME280;42236;48.058;10.632;2023-05-01T14:13:03;94467.50;;;15.12;70.46
56330;BME280;42236;48.058;10.632;2023-05-01T14:15:49;94471.94;;;14.90;72.80
56330;BME280;42236;48.058;10.632;2023-05-01T14:18:35;94476.56;;;14.25;75.92
56330;BME280;42236;48.058;10.632;2023-05-01T14:21:28;94478.63;;;13.79;77.95
56330;BME280;42236;48.058;10.632;2023-05-01T14:24:14;94471.81;;;13.39;79.06
56330;BME280;42236;48.058;10.632;2023-05-01T14:27:02;94481.19;;;12.79;81.83
56330;BME280;42236;48.058;10.632;2023-05-01T14:29:48;94483.25;;;12.67;81.97
56330;BME280;42236;48.058;10.632;2023-05-01T14:32:39;94480.75;;;12.58;83.35
56330;BME280;42236;48.058;10.632;2023-05-01T14:35:24;94486.75;;;12.67;83.00
56330;BME280;42236;48.058;10.632;2023-05-01T14:38:12;94485.06;;;12.59;83.36
56330;BME280;42236;48.058;10.632;2023-05-01T14:40:58;94486.81;;;12.51;83.81
56330;BME280;42236;48.058;10.632;2023-05-01T14:43:44;94491.00;;;12.49;84.88
56330;BME280;42236;48.058;10.632;2023-05-01T14:46:32;94487.19;;;12.50;85.34
56330;BME280;42236;48.058;10.632;2023-05-01T14:49:22;94490.47;;;12.59;86.05
56330;BME280;42236;48.058;10.632;2023-05-01T14:52:09;94485.53;;;12.65;86.74
56330;BME280;42236;48.058;10.632;2023-05-01T14:54:55;94487.59;;;12.71;86.18
56330;BME280;42236;48.058;10.632;2023-05-01T14:57:41;94486.44;;;12.92;87.79
56330;BME280;42236;48.058;10.632;2023-05-01T15:00:32;94489.09;;;13.11;87.32
56330;BME280;42236;48.058;10.632;2023-05-01T15:03:18;94492.94;;;13.30;86.42
56330;BME280;42236;48.058;10.632;2023-05-01T15:06:25;94491.59;;;13.43;86.20
56330;BME280;42236;48.058;10.632;2023-05-01T15:09:11;94487.09;;;13.51;86.07
56330;BME280;42236;48.058;10.632;2023-05-01T15:11:57;94498.53;;;13.63;86.63